createdAt,value
2022-12-11T00:01:18.747Z,10.07
2022-12-11T00:03:45.997Z,12.23
2022-12-11T00:06:16.259Z,11.00
2022-12-11T00:08:43.121Z,11.75
2022-12-11T00:11:14.605Z,12.23
2022-12-11T00:13:41.581Z,12.55
2022-12-11T00:16:09.190Z,11.30
2022-12-11T00:18:36.224Z,11.43
2022-12-11T00:21:08.446Z,11.50
2022-12-11T00:23:36.484Z,11.30
2022-12-11T00:26:14.800Z,11.35
2022-12-11T00:28:42.451Z,10.60
2022-12-11T00:31:15.207Z,11.00
2022-12-11T00:33:43.190Z,11.73
2022-12-11T00:36:16.250Z,11.68
2022-12-11T00:38:43.687Z,10.50
2022-12-11T00:41:11.356Z,11.52
2022-12-11T00:43:38.313Z,10.68
2022-12-11T00:46:05.343Z,10.45
2022-12-11T00:48:32.429Z,10.90
2022-12-11T00:50:59.588Z,10.48
2022-12-11T00:53:26.577Z,12.32
2022-12-11T00:55:53.298Z,10.65
2022-12-11T00:58:20.335Z,11.23
2022-12-11T01:00:48.294Z,11.15
2022-12-11T01:03:16.307Z,10.45
2022-12-11T01:05:51.457Z,9.85
2022-12-11T01:08:18.705Z,9.85
2022-12-11T01:10:45.946Z,10.55
2022-12-11T01:13:12.885Z,10.85
2022-12-11T01:15:44.238Z,10.13
2022-12-11T01:18:13.498Z,9.38
2022-12-11T01:20:42.480Z,10.52
2022-12-11T01:23:12.892Z,10.10
2022-12-11T01:25:40.240Z,9.70
2022-12-11T01:28:07.388Z,10.68
2022-12-11T01:30:34.578Z,10.80
2022-12-11T01:33:02.154Z,10.75
2022-12-11T01:35:29.052Z,12.63
2022-12-11T01:37:55.952Z,11.00
2022-12-11T01:40:23.001Z,12.05
2022-12-11T01:42:49.741Z,11.10
2022-12-11T01:45:24.689Z,11.63
2022-12-11T01:47:59.562Z,12.10
2022-12-11T01:50:26.647Z,12.85
2022-12-11T01:52:53.698Z,11.18
2022-12-11T01:55:21.506Z,12.35
2022-12-11T01:57:50.929Z,11.27
2022-12-11T02:00:20.315Z,10.77
2022-12-11T02:02:47.105Z,11.10
2022-12-11T02:05:14.055Z,10.68
2022-12-11T02:08:02.871Z,11.43
2022-12-11T02:11:04.637Z,9.77
2022-12-11T02:14:04.469Z,10.07
2022-12-11T02:16:45.781Z,10.13
2022-12-11T02:20:11.318Z,11.10
2022-12-11T02:23:01.287Z,11.07
2022-12-11T02:25:32.855Z,11.35
2022-12-11T02:28:33.936Z,10.38
2022-12-11T02:31:29.713Z,10.60
2022-12-11T02:34:24.400Z,11.02
2022-12-11T02:36:57.605Z,10.70
2022-12-11T02:39:26.953Z,11.02
2022-12-11T02:41:55.085Z,11.40
2022-12-11T02:44:27.075Z,10.95
2022-12-11T02:46:54.890Z,12.55
2022-12-11T02:49:23.371Z,11.40
2022-12-11T02:51:51.865Z,10.55
2022-12-11T02:54:25.526Z,10.88
2022-12-11T02:57:01.624Z,11.52
2022-12-11T02:59:35.766Z,12.15
2022-12-11T03:02:04.333Z,12.32
2022-12-11T03:04:31.676Z,12.57
2022-12-11T03:07:12.001Z,11.90
2022-12-11T03:09:40.295Z,12.75
2022-12-11T03:12:11.536Z,12.63
2022-12-11T03:14:40.559Z,12.00
2022-12-11T03:17:27.891Z,12.65
2022-12-11T03:20:13.134Z,12.10
2022-12-11T03:22:57.483Z,11.65
2022-12-11T03:25:40.162Z,12.20
2022-12-11T03:28:38.167Z,12.23
2022-12-11T03:31:12.281Z,12.18
2022-12-11T03:33:43.686Z,12.85
2022-12-11T03:38:42.719Z,11.95
2022-12-11T03:41:12.346Z,10.50
2022-12-11T03:43:41.473Z,11.23
2022-12-11T03:46:10.062Z,12.13
2022-12-11T03:48:42.398Z,12.57
2022-12-11T03:51:09.492Z,11.00
2022-12-11T03:53:37.727Z,11.98
2022-12-11T03:56:07.550Z,11.45
2022-12-11T03:58:34.412Z,12.00
2022-12-11T04:01:01.353Z,11.30
2022-12-11T04:03:28.250Z,13.40
2022-12-11T04:05:56.148Z,11.45
2022-12-11T04:08:23.716Z,11.30
2022-12-11T04:11:14.266Z,12.13
2022-12-11T04:13:41.689Z,11.27
2022-12-11T04:16:09.377Z,12.15
2022-12-11T04:18:54.622Z,11.90
2022-12-11T04:21:40.325Z,10.55
2022-12-11T04:24:16.606Z,11.35
2022-12-11T04:26:45.983Z,13.57
2022-12-11T04:29:14.144Z,10.90
2022-12-11T04:31:41.125Z,10.90
2022-12-11T04:34:07.892Z,12.80
2022-12-11T04:36:34.826Z,12.73
2022-12-11T04:39:01.534Z,13.00
2022-12-11T04:41:28.448Z,11.80
2022-12-11T04:43:55.213Z,11.63
2022-12-11T04:46:23.749Z,12.63
2022-12-11T04:48:56.999Z,11.02
2022-12-11T04:51:24.895Z,12.82
2022-12-11T04:53:51.692Z,10.60
2022-12-11T04:56:18.890Z,12.25
2022-12-11T04:58:46.320Z,11.77
2022-12-11T05:01:16.480Z,12.35
2022-12-11T05:03:43.933Z,11.70
2022-12-11T05:06:12.466Z,11.57
2022-12-11T05:08:42.277Z,12.10
2022-12-11T05:11:11.875Z,11.85
2022-12-11T05:13:39.404Z,11.60
2022-12-11T05:16:08.534Z,11.23
2022-12-11T05:18:35.798Z,10.32
2022-12-11T05:21:06.413Z,12.00
2022-12-11T05:23:34.152Z,9.95
2022-12-11T05:26:03.901Z,10.95
2022-12-11T05:28:35.603Z,12.18
2022-12-11T05:33:32.357Z,10.45
2022-12-11T05:35:59.059Z,12.07
2022-12-11T05:38:26.141Z,12.38
2022-12-11T05:41:03.539Z,12.40
2022-12-11T05:43:33.341Z,11.45
2022-12-11T05:46:13.898Z,11.05
2022-12-11T05:48:42.057Z,11.13
2022-12-11T05:51:09.833Z,11.32
2022-12-11T05:53:38.167Z,10.82
2022-12-11T05:56:11.883Z,10.93
2022-12-11T05:58:40.189Z,10.68
2022-12-11T06:01:09.464Z,9.82
2022-12-11T06:03:36.250Z,10.95
2022-12-11T06:06:04.264Z,11.30
2022-12-11T06:08:31.566Z,10.95
2022-12-11T06:10:58.737Z,12.38
2022-12-11T06:13:25.757Z,10.98
2022-12-11T06:15:52.663Z,11.93
2022-12-11T06:18:19.556Z,10.13
2022-12-11T06:20:46.228Z,9.60
2022-12-11T06:23:12.977Z,10.10
2022-12-11T06:25:40.472Z,9.77
2022-12-11T06:28:07.287Z,10.13
2022-12-11T06:30:39.267Z,12.13
2022-12-11T06:33:06.759Z,9.27
2022-12-11T06:35:38.717Z,9.70
2022-12-11T06:38:08.949Z,9.95
2022-12-11T06:40:36.088Z,10.52
2022-12-11T06:43:03.513Z,10.60
2022-12-11T06:45:30.792Z,10.45
2022-12-11T06:47:58.478Z,10.15
2022-12-11T06:50:25.273Z,9.98
2022-12-11T06:52:52.043Z,9.68
2022-12-11T06:55:18.761Z,8.98
2022-12-11T06:57:45.502Z,10.95
2022-12-11T07:00:13.083Z,9.35
2022-12-11T07:02:39.862Z,8.85
2022-12-11T07:05:07.071Z,10.07
2022-12-11T07:07:34.584Z,10.15
2022-12-11T07:10:07.696Z,10.95
2022-12-11T07:12:35.946Z,10.90
2022-12-11T07:15:03.729Z,9.52
2022-12-11T07:17:30.959Z,10.48
2022-12-11T07:19:57.656Z,9.55
2022-12-11T07:22:24.407Z,10.18
2022-12-11T07:24:51.238Z,9.82
2022-12-11T07:27:17.931Z,10.77
2022-12-11T07:29:44.996Z,11.13
2022-12-11T07:32:11.841Z,10.43
2022-12-11T07:34:38.874Z,10.07
2022-12-11T07:37:05.704Z,9.10
2022-12-11T07:39:32.531Z,8.98
2022-12-11T07:41:59.231Z,9.55
2022-12-11T07:44:26.051Z,9.43
2022-12-11T07:46:52.718Z,10.48
2022-12-11T07:49:19.430Z,10.05
2022-12-11T07:51:46.435Z,10.20
2022-12-11T07:54:16.839Z,9.95
2022-12-11T07:56:53.189Z,10.10
2022-12-11T07:59:21.130Z,9.63
2022-12-11T08:01:48.007Z,10.73
2022-12-11T08:04:15.769Z,10.68
2022-12-11T08:06:43.239Z,9.88
2022-12-11T08:09:17.492Z,8.75
2022-12-11T08:11:50.211Z,9.60
2022-12-11T08:14:17.110Z,8.40
2022-12-11T08:16:44.258Z,9.30
2022-12-11T08:19:14.480Z,10.32
2022-12-11T08:21:41.627Z,9.25
2022-12-11T08:24:09.124Z,8.63
2022-12-11T08:26:35.922Z,8.68
2022-12-11T08:29:03.162Z,8.68
2022-12-11T08:31:30.603Z,8.27
2022-12-11T08:33:57.679Z,8.80
2022-12-11T08:36:25.604Z,9.82
2022-12-11T08:38:55.319Z,8.75
2022-12-11T08:41:25.073Z,9.05
2022-12-11T08:43:54.914Z,9.32
2022-12-11T08:46:23.918Z,9.15
2022-12-11T08:48:51.044Z,9.00
2022-12-11T08:51:21.371Z,10.55
2022-12-11T08:53:48.307Z,9.48
2022-12-11T08:56:17.375Z,10.43
2022-12-11T08:58:46.738Z,9.48
2022-12-11T09:01:15.470Z,9.68
2022-12-11T09:03:42.538Z,8.98
2022-12-11T09:06:11.951Z,9.07
2022-12-11T09:08:40.714Z,8.00
2022-12-11T09:11:12.645Z,9.13
2022-12-11T09:13:40.763Z,8.63
2022-12-11T09:16:10.957Z,9.48
2022-12-11T09:18:39.449Z,9.45
2022-12-11T09:21:09.415Z,8.48
2022-12-11T09:23:36.535Z,9.38
2022-12-11T09:26:07.996Z,8.98
2022-12-11T09:28:35.222Z,9.20
2022-12-11T09:31:01.977Z,9.48
2022-12-11T09:33:28.826Z,9.63
2022-12-11T09:36:02.842Z,9.18
2022-12-11T09:38:30.064Z,8.82
2022-12-11T09:40:56.879Z,8.43
2022-12-11T09:43:45.814Z,9.15
2022-12-11T09:46:16.618Z,8.25
2022-12-11T09:48:48.613Z,10.30
2022-12-11T09:51:28.476Z,8.95
2022-12-11T09:53:59.396Z,8.68
2022-12-11T09:56:33.601Z,9.73
2022-12-11T09:59:09.244Z,9.05
2022-12-11T10:01:52.504Z,8.38
2022-12-11T10:04:38.191Z,7.25
2022-12-11T10:07:30.016Z,9.55
2022-12-11T10:12:44.202Z,8.60
2022-12-11T10:15:26.381Z,9.02
2022-12-11T10:18:02.940Z,8.70
2022-12-11T10:20:39.221Z,9.00
2022-12-11T10:23:22.335Z,7.95
2022-12-11T10:26:08.022Z,8.43
2022-12-11T10:28:35.723Z,9.82
2022-12-11T10:31:18.331Z,7.82
2022-12-11T10:34:11.211Z,8.63
2022-12-11T10:36:40.549Z,9.35
2022-12-11T10:39:16.278Z,8.13
2022-12-11T10:41:45.971Z,9.13
2022-12-11T10:44:21.795Z,8.73
2022-12-11T10:47:10.245Z,8.98
2022-12-11T10:49:39.079Z,8.55
2022-12-11T10:52:19.851Z,8.25
2022-12-11T10:54:54.715Z,10.27
2022-12-11T10:57:36.636Z,8.75
2022-12-11T11:00:07.340Z,8.55
2022-12-11T11:02:40.132Z,7.57
2022-12-11T11:05:27.009Z,8.70
2022-12-11T11:08:19.331Z,9.15
2022-12-11T11:11:01.384Z,9.32
2022-12-11T11:13:30.193Z,8.73
2022-12-11T11:16:13.256Z,10.55
2022-12-11T11:18:41.732Z,8.80
2022-12-11T11:21:16.901Z,7.75
2022-12-11T11:23:47.234Z,8.77
2022-12-11T11:26:18.648Z,8.00
2022-12-11T11:29:03.873Z,7.82
2022-12-11T11:31:35.499Z,8.30
2022-12-11T11:36:35.778Z,7.20
2022-12-11T11:39:39.124Z,8.82
2022-12-11T11:42:37.515Z,8.48
2022-12-11T11:45:16.214Z,10.00
2022-12-11T11:48:11.913Z,9.77
2022-12-11T11:50:45.087Z,9.68
2022-12-11T11:53:24.318Z,7.70
2022-12-11T11:56:09.380Z,7.60
2022-12-11T11:59:05.037Z,8.07
2022-12-11T12:01:32.214Z,8.50
2022-12-11T12:03:59.531Z,8.45
2022-12-11T12:06:30.269Z,8.15
2022-12-11T12:09:14.881Z,7.77
2022-12-11T12:11:41.668Z,8.40
2022-12-11T12:17:37.990Z,10.50
2022-12-11T12:20:24.110Z,8.27
2022-12-11T12:22:56.447Z,10.82
2022-12-11T12:25:35.765Z,8.25
2022-12-11T12:28:20.444Z,9.77
2022-12-11T12:31:00.593Z,8.38
2022-12-11T12:33:33.215Z,8.80
2022-12-11T12:36:21.062Z,9.95
2022-12-11T12:39:02.592Z,7.93
2022-12-11T12:41:51.031Z,8.50
2022-12-11T12:44:22.065Z,8.30
2022-12-11T12:47:10.926Z,8.65
2022-12-11T12:49:48.259Z,8.30
2022-12-11T12:52:25.748Z,9.30
2022-12-11T12:55:16.086Z,10.02
2022-12-11T12:57:46.933Z,9.18
2022-12-11T13:00:14.241Z,8.07
2022-12-11T13:02:51.249Z,9.57
2022-12-11T13:05:24.298Z,8.70
2022-12-11T13:07:55.684Z,8.18
2022-12-11T13:10:43.022Z,8.02
2022-12-11T13:13:32.191Z,9.13
2022-12-11T13:16:17.294Z,9.85
2022-12-11T13:18:47.568Z,8.02
2022-12-11T13:21:26.465Z,8.15
2022-12-11T13:23:54.146Z,9.35
2022-12-11T13:26:32.204Z,8.73
2022-12-11T13:28:59.320Z,7.93
2022-12-11T13:31:45.498Z,7.75
2022-12-11T13:34:18.414Z,8.27
2022-12-11T13:36:50.570Z,8.77
2022-12-11T13:39:18.930Z,9.18
2022-12-11T13:42:02.920Z,7.75
2022-12-11T13:44:39.844Z,8.40
2022-12-11T13:47:13.922Z,7.68
2022-12-11T13:49:44.040Z,8.18
2022-12-11T13:52:19.302Z,8.10
2022-12-11T13:54:52.325Z,7.63
2022-12-11T13:57:21.260Z,9.02
2022-12-11T13:59:50.853Z,8.07
2022-12-11T14:02:39.320Z,8.10
2022-12-11T14:05:12.687Z,7.82
2022-12-11T14:07:52.751Z,8.32
2022-12-11T14:10:30.146Z,7.18
2022-12-11T14:13:04.927Z,8.65
2022-12-11T14:15:33.140Z,9.05
2022-12-11T14:18:00.739Z,8.60
2022-12-11T14:20:32.678Z,8.20
2022-12-11T14:23:18.997Z,8.32
2022-12-11T14:26:00.075Z,8.15
2022-12-11T14:28:30.441Z,8.48
2022-12-11T14:31:00.779Z,8.15
2022-12-11T14:33:33.362Z,7.88
2022-12-11T14:36:02.171Z,7.65
2022-12-11T14:38:35.834Z,7.72
2022-12-11T14:41:21.413Z,9.10
2022-12-11T14:43:52.937Z,7.70
2022-12-11T14:46:30.554Z,9.15
2022-12-11T14:49:20.945Z,7.95
2022-12-11T14:51:49.589Z,7.68
2022-12-11T14:54:33.992Z,8.70
2022-12-11T14:57:06.488Z,7.63
2022-12-11T14:59:41.242Z,7.82
2022-12-11T15:02:29.996Z,7.90
2022-12-11T15:05:13.112Z,8.02
2022-12-11T15:07:43.546Z,6.88
2022-12-11T15:10:36.180Z,7.90
2022-12-11T15:13:05.809Z,9.95
2022-12-11T15:15:39.092Z,7.70
2022-12-11T15:18:13.974Z,8.40
2022-12-11T15:20:41.440Z,7.20
2022-12-11T15:23:08.326Z,7.05
2022-12-11T15:25:35.080Z,7.75
2022-12-11T15:28:02.061Z,7.40
2022-12-11T15:30:32.371Z,8.30
2022-12-11T15:33:19.450Z,8.07
2022-12-11T15:35:56.608Z,7.00
2022-12-11T15:38:42.065Z,7.45
2022-12-11T15:41:15.932Z,8.43
2022-12-11T15:43:43.610Z,7.43
2022-12-11T15:46:10.388Z,8.45
2022-12-11T15:48:37.118Z,7.63
2022-12-11T15:51:03.956Z,8.50
2022-12-11T15:53:30.719Z,8.10
2022-12-11T15:55:58.781Z,7.47
2022-12-11T15:58:27.266Z,7.45
2022-12-11T16:00:54.206Z,8.20
2022-12-11T16:03:22.971Z,8.13
2022-12-11T16:05:51.424Z,7.63
2022-12-11T16:08:21.780Z,8.00
2022-12-11T16:10:49.231Z,7.28
2022-12-11T16:13:16.024Z,6.88
2022-12-11T16:15:45.058Z,7.50
2022-12-11T16:18:19.403Z,8.18
2022-12-11T16:20:47.414Z,7.75
2022-12-11T16:23:16.287Z,6.30
2022-12-11T16:25:45.015Z,7.38
2022-12-11T16:28:14.365Z,7.82
2022-12-11T16:30:43.598Z,8.02
2022-12-11T16:33:13.284Z,8.05
2022-12-11T16:35:41.962Z,9.48
2022-12-11T16:38:10.068Z,8.43
2022-12-11T16:40:37.460Z,8.18
2022-12-11T16:43:05.245Z,8.52
2022-12-11T16:45:32.713Z,9.60
2022-12-11T16:48:02.783Z,9.43
2022-12-11T16:50:29.450Z,8.07
2022-12-11T16:52:57.305Z,8.77
2022-12-11T16:55:24.015Z,8.88
2022-12-11T16:57:50.717Z,8.85
2022-12-11T17:00:17.680Z,8.93
2022-12-11T17:02:44.500Z,9.00
2022-12-11T17:05:11.658Z,8.68
2022-12-11T17:07:40.344Z,8.57
2022-12-11T17:10:07.690Z,9.13
2022-12-11T17:12:34.416Z,7.75
2022-12-11T17:15:01.156Z,8.88
2022-12-11T17:17:27.903Z,8.52
2022-12-11T17:19:55.873Z,9.18
2022-12-11T17:22:22.825Z,9.55
2022-12-11T17:24:49.650Z,9.27
2022-12-11T17:27:16.570Z,7.93
2022-12-11T17:29:43.309Z,9.73
2022-12-11T17:32:10.165Z,9.02
2022-12-11T17:34:38.569Z,9.27
2022-12-11T17:37:06.193Z,8.93
2022-12-11T17:39:33.116Z,8.90
2022-12-11T17:42:00.336Z,8.93
2022-12-11T17:44:30.554Z,8.18
2022-12-11T17:46:58.252Z,8.93
2022-12-11T17:49:25.781Z,8.18
2022-12-11T17:51:55.162Z,9.35
2022-12-11T17:54:23.579Z,8.48
2022-12-11T17:56:50.897Z,8.85
2022-12-11T17:59:18.071Z,10.07
2022-12-11T18:01:45.624Z,10.75
2022-12-11T18:04:12.629Z,8.52
2022-12-11T18:06:39.643Z,10.38
2022-12-11T18:09:06.750Z,9.98
2022-12-11T18:11:34.014Z,9.02
2022-12-11T18:14:00.776Z,9.73
2022-12-11T18:16:31.398Z,9.18
2022-12-11T18:18:58.265Z,9.33
2022-12-11T18:21:28.636Z,8.88
2022-12-11T18:23:56.060Z,9.18
2022-12-11T18:26:23.151Z,8.70
2022-12-11T18:28:50.954Z,7.68
2022-12-11T18:31:19.490Z,9.02
2022-12-11T18:33:46.739Z,8.57
2022-12-11T18:36:15.704Z,8.20
2022-12-11T18:38:43.275Z,8.25
2022-12-11T18:41:13.372Z,7.88
2022-12-11T18:43:40.798Z,8.07
2022-12-11T18:46:13.996Z,8.52
2022-12-11T18:48:44.578Z,8.23
2022-12-11T18:51:17.392Z,9.15
2022-12-11T18:53:44.843Z,9.48
2022-12-11T18:56:14.993Z,8.13
2022-12-11T18:58:42.332Z,8.38
2022-12-11T19:01:24.229Z,9.45
2022-12-11T19:03:55.355Z,8.40
2022-12-11T19:06:28.418Z,9.20
2022-12-11T19:08:55.473Z,9.57
2022-12-11T19:11:24.883Z,8.85
2022-12-11T19:13:53.409Z,9.27
2022-12-11T19:16:23.447Z,8.35
2022-12-11T19:18:50.818Z,10.10
2022-12-11T19:21:18.225Z,8.10
2022-12-11T19:23:45.821Z,9.73
2022-12-11T19:26:15.581Z,8.13
2022-12-11T19:28:42.345Z,9.35
2022-12-11T19:31:12.144Z,9.45
2022-12-11T19:33:40.413Z,8.90
2022-12-11T19:36:16.337Z,8.77
2022-12-11T19:38:44.607Z,9.18
2022-12-11T19:41:29.370Z,9.68
2022-12-11T19:43:58.034Z,10.15
2022-12-11T19:46:25.854Z,10.48
2022-12-11T19:48:54.458Z,11.18
2022-12-11T19:51:24.653Z,10.13
2022-12-11T19:53:52.054Z,10.45
2022-12-11T19:56:19.749Z,12.23
2022-12-11T19:58:47.732Z,10.68
2022-12-11T20:01:25.018Z,10.70
2022-12-11T20:03:53.664Z,10.48
2022-12-11T20:06:21.336Z,11.20
2022-12-11T20:08:48.639Z,10.88
2022-12-11T20:11:18.588Z,8.93
2022-12-11T20:13:47.504Z,9.60
2022-12-11T20:16:15.610Z,9.30
2022-12-11T20:18:42.907Z,10.60
2022-12-11T20:21:13.684Z,10.15
2022-12-11T20:23:41.649Z,9.65
2022-12-11T20:26:09.905Z,10.38
2022-12-11T20:28:36.675Z,10.55
2022-12-11T20:31:19.939Z,9.88
2022-12-11T20:33:49.135Z,12.20
2022-12-11T20:36:17.363Z,10.20
2022-12-11T20:38:45.052Z,9.90
2022-12-11T20:41:14.837Z,9.88
2022-12-11T20:43:42.531Z,8.75
2022-12-11T20:46:10.684Z,8.40
2022-12-11T20:48:39.372Z,9.80
2022-12-11T20:51:07.848Z,8.63
2022-12-11T20:53:37.202Z,8.95
2022-12-11T20:56:12.738Z,8.55
2022-12-11T20:58:40.600Z,8.98
2022-12-11T21:01:12.671Z,9.10
2022-12-11T21:03:42.091Z,9.20
2022-12-11T21:06:19.951Z,8.88
2022-12-11T21:08:46.694Z,9.35
2022-12-11T21:11:13.438Z,9.52
2022-12-11T21:13:40.553Z,9.20
2022-12-11T21:16:08.499Z,9.15
2022-12-11T21:18:35.546Z,9.93
2022-12-11T21:21:02.442Z,9.10
2022-12-11T21:23:29.182Z,10.40
2022-12-11T21:25:56.191Z,9.43
2022-12-11T21:28:22.966Z,9.55
2022-12-11T21:30:49.794Z,10.05
2022-12-11T21:33:17.466Z,9.23
2022-12-11T21:35:44.143Z,8.85
2022-12-11T21:38:10.960Z,10.40
2022-12-11T21:40:37.650Z,9.88
2022-12-11T21:43:04.557Z,11.10
2022-12-11T21:48:22.605Z,10.05
2022-12-11T21:50:49.472Z,9.77
2022-12-11T21:53:16.226Z,10.82
2022-12-11T21:55:43.000Z,9.82
2022-12-11T21:58:10.228Z,8.95
2022-12-11T22:00:38.898Z,9.88
2022-12-11T22:03:06.253Z,9.65
2022-12-11T22:05:33.014Z,10.10
2022-12-11T22:07:59.848Z,10.90
2022-12-11T22:10:28.974Z,8.80
2022-12-11T22:12:55.891Z,10.25
2022-12-11T22:15:23.221Z,10.10
2022-12-11T22:17:52.162Z,10.25
2022-12-11T22:20:19.059Z,9.68
2022-12-11T22:22:46.704Z,11.15
2022-12-11T22:25:13.752Z,11.23
2022-12-11T22:27:40.828Z,11.32
2022-12-11T22:30:08.443Z,9.93
2022-12-11T22:32:35.526Z,10.60
2022-12-11T22:35:02.857Z,11.25
2022-12-11T22:37:29.595Z,12.05
2022-12-11T22:39:56.517Z,10.98
2022-12-11T22:42:23.350Z,11.75
2022-12-11T22:44:50.094Z,11.60
2022-12-11T22:47:16.963Z,12.63
2022-12-11T22:49:43.734Z,11.20
2022-12-11T22:52:10.591Z,9.70
2022-12-11T22:54:41.700Z,10.77
2022-12-11T22:57:09.111Z,10.50
2022-12-11T22:59:36.212Z,10.65
2022-12-11T23:02:03.328Z,11.15
2022-12-11T23:04:30.633Z,10.82
2022-12-11T23:06:57.775Z,11.43
2022-12-11T23:09:25.077Z,10.50
2022-12-11T23:11:52.234Z,12.93
2022-12-11T23:14:19.597Z,12.35
2022-12-11T23:16:46.415Z,11.90
2022-12-11T23:19:13.441Z,14.30
2022-12-11T23:21:40.438Z,11.85
2022-12-11T23:24:07.804Z,11.50
2022-12-11T23:26:34.975Z,12.60
2022-12-11T23:29:03.430Z,12.18
2022-12-11T23:31:30.266Z,12.95
2022-12-11T23:33:57.702Z,11.40
2022-12-11T23:36:25.961Z,11.13
2022-12-11T23:38:55.010Z,11.98
2022-12-11T23:41:22.827Z,11.57
2022-12-11T23:43:49.730Z,11.73
2022-12-11T23:46:19.233Z,10.73
2022-12-11T23:48:48.250Z,11.45
2022-12-11T23:51:17.546Z,10.63
2022-12-11T23:53:44.545Z,11.65
2022-12-11T23:56:17.994Z,10.70
2022-12-11T23:58:45.713Z,12.27
